PPCOA SBBI-SBRD
Flight info
| Callsign | PPCOA |
|---|---|
| Flight time | 1h 24m |
| Altitude | 38000 |
| Route | PRR DCT DIKUN |
| Aircraft | CL60/M-SBDE1E2E3FGHIJ4J5J7M3RWXYZ/LB1V1D1 |
Departure
| Time | 2026-04-20 01:30 |
|---|---|
| Airport | Bacacheri Airport (SBBI) |
Arrival
| Time | 2026-04-20 02:55 |
|---|---|
| Airport | Maestro Marinho Franco Airport (SBRD) |
| Time | Latitude | Longitude | Altitude | Speed | Heading |
|---|---|---|---|---|---|
| 2026-04-20 01:30 | -25.23339 | -49.34318 | 13363 ft | 332 kts | 328° |
| 2026-04-20 01:30 | -25.21342 | -49.35715 | 14126 ft | 346 kts | 327° |
| 2026-04-20 01:30 | -25.19295 | -49.37148 | 14894 ft | 357 kts | 327° |
| 2026-04-20 01:30 | -25.17171 | -49.38633 | 15585 ft | 367 kts | 326° |
| 2026-04-20 01:31 | -25.14981 | -49.40165 | 16254 ft | 375 kts | 326° |
| 2026-04-20 01:31 | -25.12776 | -49.41706 | 16947 ft | 382 kts | 325° |
| 2026-04-20 01:31 | -25.10532 | -49.43274 | 17660 ft | 386 kts | 325° |
| 2026-04-20 01:31 | -25.08227 | -49.44883 | 18363 ft | 390 kts | 325° |
| 2026-04-20 01:32 | -25.05937 | -49.46481 | 19016 ft | 395 kts | 325° |
| 2026-04-20 01:32 | -25.03593 | -49.48116 | 19693 ft | 398 kts | 324° |
| 2026-04-20 01:32 | -25.01265 | -49.49741 | 20351 ft | 402 kts | 324° |
| 2026-04-20 01:32 | -24.98879 | -49.51405 | 20993 ft | 405 kts | 324° |
| 2026-04-20 01:33 | -24.96489 | -49.53072 | 21625 ft | 409 kts | 324° |
| 2026-04-20 01:33 | -24.94104 | -49.54735 | 22235 ft | 412 kts | 324° |
| 2026-04-20 01:33 | -24.91679 | -49.56423 | 22838 ft | 415 kts | 324° |
| 2026-04-20 01:33 | -24.89229 | -49.58129 | 23431 ft | 418 kts | 324° |
| 2026-04-20 01:34 | -24.86737 | -49.59862 | 24050 ft | 421 kts | 324° |
| 2026-04-20 01:34 | -24.84236 | -49.61599 | 24686 ft | 423 kts | 324° |
| 2026-04-20 01:34 | -24.81733 | -49.63337 | 25283 ft | 426 kts | 324° |
| 2026-04-20 01:34 | -24.79213 | -49.65086 | 25875 ft | 429 kts | 324° |
| 2026-04-20 01:35 | -24.76678 | -49.66843 | 26456 ft | 432 kts | 324° |
| 2026-04-20 01:35 | -24.74107 | -49.68626 | 27045 ft | 434 kts | 324° |
| 2026-04-20 01:35 | -24.71543 | -49.70403 | 27629 ft | 436 kts | 324° |
| 2026-04-20 01:35 | -24.68961 | -49.72191 | 28203 ft | 439 kts | 324° |
| 2026-04-20 01:36 | -24.66372 | -49.73983 | 28793 ft | 441 kts | 324° |
| 2026-04-20 01:36 | -24.63762 | -49.75790 | 29344 ft | 443 kts | 324° |
| 2026-04-20 01:36 | -24.61159 | -49.77590 | 29866 ft | 445 kts | 324° |
| 2026-04-20 01:36 | -24.58546 | -49.79397 | 30370 ft | 448 kts | 324° |
| 2026-04-20 01:37 | -24.55899 | -49.81226 | 30866 ft | 450 kts | 325° |
| 2026-04-20 01:37 | -24.53252 | -49.83054 | 31274 ft | 452 kts | 324° |
| 2026-04-20 01:37 | -24.50570 | -49.84906 | 31648 ft | 455 kts | 324° |
| 2026-04-20 01:37 | -24.47858 | -49.86778 | 32008 ft | 458 kts | 324° |
| 2026-04-20 01:38 | -24.45166 | -49.88634 | 32359 ft | 460 kts | 324° |
| 2026-04-20 01:38 | -24.42440 | -49.90514 | 32679 ft | 462 kts | 324° |
| 2026-04-20 01:38 | -24.39720 | -49.92388 | 32963 ft | 465 kts | 324° |
| 2026-04-20 01:38 | -24.36975 | -49.94279 | 33247 ft | 467 kts | 324° |
| 2026-04-20 01:39 | -24.34193 | -49.96193 | 33525 ft | 469 kts | 324° |
| 2026-04-20 01:39 | -24.31424 | -49.98098 | 33772 ft | 470 kts | 324° |
| 2026-04-20 01:39 | -24.28667 | -49.99994 | 34031 ft | 471 kts | 324° |
| 2026-04-20 01:39 | -24.25864 | -50.01920 | 34330 ft | 471 kts | 324° |
| 2026-04-20 01:40 | -24.23097 | -50.03820 | 34642 ft | 470 kts | 324° |
| 2026-04-20 01:40 | -24.20323 | -50.05723 | 34951 ft | 469 kts | 323° |
| 2026-04-20 01:40 | -24.17551 | -50.07624 | 35252 ft | 467 kts | 323° |
| 2026-04-20 01:40 | -24.14809 | -50.09504 | 35538 ft | 467 kts | 323° |
| 2026-04-20 01:41 | -24.12069 | -50.11382 | 35805 ft | 466 kts | 323° |
| 2026-04-20 01:41 | -24.09311 | -50.13272 | 36066 ft | 466 kts | 323° |
| 2026-04-20 01:41 | -24.06564 | -50.15152 | 36311 ft | 466 kts | 323° |
| 2026-04-20 01:41 | -24.03813 | -50.17036 | 36549 ft | 465 kts | 323° |
| 2026-04-20 01:42 | -24.01076 | -50.18908 | 36783 ft | 465 kts | 323° |
| 2026-04-20 01:42 | -23.98321 | -50.20792 | 37003 ft | 465 kts | 322° |
| 2026-04-20 01:42 | -23.95569 | -50.22672 | 37216 ft | 465 kts | 322° |
| 2026-04-20 01:42 | -23.92829 | -50.24544 | 37437 ft | 464 kts | 322° |
| 2026-04-20 01:43 | -23.90091 | -50.26413 | 37627 ft | 464 kts | 322° |
| 2026-04-20 01:43 | -23.87339 | -50.28291 | 37806 ft | 464 kts | 322° |
| 2026-04-20 01:43 | -23.84558 | -50.30188 | 37985 ft | 463 kts | 322° |
| 2026-04-20 01:43 | -23.81796 | -50.32072 | 38063 ft | 466 kts | 322° |
| 2026-04-20 01:44 | -23.76244 | -50.35855 | 38020 ft | 468 kts | 322° |
| 2026-04-20 01:44 | -23.70765 | -50.39582 | 38022 ft | 464 kts | 322° |
| 2026-04-20 01:45 | -23.65281 | -50.43309 | 38012 ft | 461 kts | 322° |
| 2026-04-20 01:45 | -23.59853 | -50.46995 | 38020 ft | 460 kts | 321° |
| 2026-04-20 01:46 | -23.54398 | -50.50697 | 38022 ft | 461 kts | 321° |
| 2026-04-20 01:46 | -23.48947 | -50.54392 | 38035 ft | 461 kts | 321° |
| 2026-04-20 01:47 | -23.43508 | -50.58076 | 38039 ft | 462 kts | 321° |
| 2026-04-20 01:47 | -23.38018 | -50.61794 | 38029 ft | 469 kts | 321° |
| 2026-04-20 01:48 | -23.32399 | -50.65593 | 38028 ft | 475 kts | 322° |
| 2026-04-20 01:48 | -23.26744 | -50.69411 | 38021 ft | 478 kts | 322° |
| 2026-04-20 01:49 | -23.21056 | -50.73246 | 38007 ft | 478 kts | 322° |
| 2026-04-20 01:49 | -23.15428 | -50.77035 | 38010 ft | 477 kts | 322° |
| 2026-04-20 01:50 | -23.09797 | -50.80824 | 38007 ft | 476 kts | 322° |
| 2026-04-20 01:50 | -23.04170 | -50.84607 | 38004 ft | 476 kts | 322° |
| 2026-04-20 01:51 | -22.98520 | -50.88402 | 38000 ft | 475 kts | 322° |
| 2026-04-20 01:51 | -22.92896 | -50.92176 | 37998 ft | 475 kts | 321° |
| 2026-04-20 01:52 | -22.87258 | -50.95956 | 37994 ft | 475 kts | 321° |
| 2026-04-20 01:52 | -22.81624 | -50.99729 | 37991 ft | 474 kts | 321° |
| 2026-04-20 01:53 | -22.76011 | -51.03484 | 37988 ft | 474 kts | 321° |
| 2026-04-20 01:53 | -22.70393 | -51.07240 | 37987 ft | 474 kts | 321° |
| 2026-04-20 01:54 | -22.64781 | -51.10988 | 37985 ft | 473 kts | 321° |
| 2026-04-20 01:54 | -22.59179 | -51.14724 | 37991 ft | 473 kts | 321° |
| 2026-04-20 01:55 | -22.53592 | -51.18447 | 37995 ft | 473 kts | 321° |
| 2026-04-20 01:55 | -22.48008 | -51.22166 | 37998 ft | 472 kts | 321° |
| 2026-04-20 01:56 | -22.42408 | -51.25891 | 37997 ft | 472 kts | 321° |
| 2026-04-20 01:56 | -22.36785 | -51.29627 | 37995 ft | 472 kts | 321° |
| 2026-04-20 01:57 | -22.31202 | -51.33333 | 37992 ft | 471 kts | 321° |
| 2026-04-20 01:57 | -22.25645 | -51.37019 | 37991 ft | 470 kts | 321° |
| 2026-04-20 01:58 | -22.20073 | -51.40711 | 37990 ft | 470 kts | 321° |
| 2026-04-20 01:58 | -22.14322 | -51.44212 | 37984 ft | 475 kts | 326° |
| 2026-04-20 01:59 | -22.08396 | -51.47395 | 37988 ft | 474 kts | 326° |
| 2026-04-20 01:59 | -22.02484 | -51.50575 | 37989 ft | 474 kts | 326° |
| 2026-04-20 02:00 | -21.96592 | -51.53743 | 37988 ft | 474 kts | 326° |
| 2026-04-20 02:00 | -21.90709 | -51.56906 | 37985 ft | 474 kts | 326° |
| 2026-04-20 02:01 | -21.84768 | -51.60097 | 37983 ft | 473 kts | 326° |
| 2026-04-20 02:01 | -21.78846 | -51.63277 | 37981 ft | 473 kts | 326° |
| 2026-04-20 02:02 | -21.72929 | -51.66452 | 37979 ft | 473 kts | 326° |
| 2026-04-20 02:02 | -21.67034 | -51.69613 | 37972 ft | 473 kts | 326° |
| 2026-04-20 02:03 | -21.61129 | -51.72776 | 37975 ft | 473 kts | 326° |
| 2026-04-20 02:03 | -21.55240 | -51.75927 | 37978 ft | 473 kts | 326° |
| 2026-04-20 02:04 | -21.49342 | -51.79082 | 37974 ft | 473 kts | 326° |
| 2026-04-20 02:04 | -21.43454 | -51.82228 | 37975 ft | 473 kts | 326° |
| 2026-04-20 02:05 | -21.37547 | -51.85382 | 37978 ft | 474 kts | 326° |
| 2026-04-20 02:05 | -21.31633 | -51.88535 | 37986 ft | 473 kts | 326° |
| 2026-04-20 02:06 | -21.25740 | -51.91676 | 37990 ft | 473 kts | 326° |
| 2026-04-20 02:06 | -21.19838 | -51.94818 | 37989 ft | 473 kts | 326° |
| 2026-04-20 02:07 | -21.13937 | -51.97957 | 37989 ft | 473 kts | 326° |
| 2026-04-20 02:07 | -21.08070 | -52.01075 | 37992 ft | 473 kts | 326° |
| 2026-04-20 02:08 | -21.02163 | -52.04212 | 37995 ft | 473 kts | 327° |
| 2026-04-20 02:08 | -20.96255 | -52.07346 | 37994 ft | 474 kts | 327° |
| 2026-04-20 02:09 | -20.90339 | -52.10482 | 37995 ft | 474 kts | 327° |
| 2026-04-20 02:09 | -20.84340 | -52.13659 | 37996 ft | 473 kts | 327° |
| 2026-04-20 02:10 | -20.78436 | -52.16782 | 37997 ft | 473 kts | 327° |
| 2026-04-20 02:10 | -20.72489 | -52.19926 | 37998 ft | 473 kts | 327° |
| 2026-04-20 02:11 | -20.66591 | -52.23042 | 37997 ft | 473 kts | 327° |
| 2026-04-20 02:11 | -20.60677 | -52.26162 | 37999 ft | 473 kts | 327° |
| 2026-04-20 02:12 | -20.54734 | -52.29296 | 38000 ft | 473 kts | 327° |
| 2026-04-20 02:12 | -20.48831 | -52.32406 | 38000 ft | 473 kts | 327° |
| 2026-04-20 02:13 | -20.42910 | -52.35522 | 38001 ft | 473 kts | 327° |
| 2026-04-20 02:13 | -20.37025 | -52.38617 | 38002 ft | 473 kts | 327° |
| 2026-04-20 02:14 | -20.31088 | -52.41736 | 38004 ft | 472 kts | 327° |
| 2026-04-20 02:14 | -20.25205 | -52.44825 | 38006 ft | 472 kts | 327° |
| 2026-04-20 02:15 | -20.19299 | -52.47923 | 38005 ft | 472 kts | 327° |
| 2026-04-20 02:15 | -20.13409 | -52.51010 | 38000 ft | 472 kts | 327° |
| 2026-04-20 02:16 | -20.07488 | -52.54110 | 37988 ft | 473 kts | 327° |
| 2026-04-20 02:16 | -20.01572 | -52.57205 | 37997 ft | 472 kts | 327° |
| 2026-04-20 02:17 | -19.95655 | -52.60298 | 37998 ft | 472 kts | 327° |
| 2026-04-20 02:17 | -19.89760 | -52.63378 | 37998 ft | 472 kts | 327° |
| 2026-04-20 02:18 | -19.83804 | -52.66487 | 38000 ft | 473 kts | 327° |
| 2026-04-20 02:18 | -19.77859 | -52.69587 | 38000 ft | 473 kts | 328° |
| 2026-04-20 02:19 | -19.71957 | -52.72662 | 38003 ft | 473 kts | 328° |
| 2026-04-20 02:19 | -19.66030 | -52.75748 | 38003 ft | 473 kts | 328° |
| 2026-04-20 02:20 | -19.60096 | -52.78835 | 38004 ft | 473 kts | 328° |
| 2026-04-20 02:20 | -19.54193 | -52.81903 | 38006 ft | 473 kts | 328° |
| 2026-04-20 02:21 | -19.45301 | -52.86519 | 38009 ft | 473 kts | 328° |
| 2026-04-20 02:22 | -19.39387 | -52.89586 | 38012 ft | 473 kts | 328° |
| 2026-04-20 02:22 | -19.33443 | -52.92667 | 38014 ft | 474 kts | 328° |
| 2026-04-20 02:23 | -19.27478 | -52.95756 | 38016 ft | 474 kts | 328° |
| 2026-04-20 02:23 | -19.21524 | -52.98837 | 38019 ft | 474 kts | 328° |
| 2026-04-20 02:24 | -19.15559 | -53.01921 | 38026 ft | 474 kts | 328° |
| 2026-04-20 02:24 | -19.09623 | -53.04987 | 38002 ft | 475 kts | 328° |
| 2026-04-20 02:25 | -19.03645 | -53.08073 | 37985 ft | 475 kts | 328° |
| 2026-04-20 02:25 | -18.97715 | -53.11131 | 37989 ft | 474 kts | 328° |
| 2026-04-20 02:26 | -18.91762 | -53.14200 | 37991 ft | 475 kts | 328° |
| 2026-04-20 02:26 | -18.85742 | -53.17300 | 37988 ft | 475 kts | 328° |
| 2026-04-20 02:27 | -18.79787 | -53.20364 | 37984 ft | 476 kts | 328° |
| 2026-04-20 02:27 | -18.73809 | -53.23438 | 37980 ft | 476 kts | 328° |
| 2026-04-20 02:28 | -18.67853 | -53.26497 | 37990 ft | 475 kts | 328° |
| 2026-04-20 02:28 | -18.61917 | -53.29545 | 37983 ft | 476 kts | 328° |
| 2026-04-20 02:29 | -18.55940 | -53.32611 | 37982 ft | 476 kts | 328° |
| 2026-04-20 02:29 | -18.49976 | -53.35667 | 37981 ft | 476 kts | 328° |
| 2026-04-20 02:30 | -18.44014 | -53.38721 | 37978 ft | 476 kts | 328° |
| 2026-04-20 02:30 | -18.38036 | -53.41780 | 37975 ft | 476 kts | 328° |
| 2026-04-20 02:31 | -18.32086 | -53.44823 | 37970 ft | 476 kts | 328° |
| 2026-04-20 02:31 | -18.26107 | -53.47878 | 37964 ft | 476 kts | 328° |
| 2026-04-20 02:32 | -18.20175 | -53.50905 | 37957 ft | 470 kts | 328° |
| 2026-04-20 02:32 | -18.14324 | -53.53887 | 37951 ft | 461 kts | 328° |
| 2026-04-20 02:33 | -18.08528 | -53.56846 | 37409 ft | 467 kts | 328° |
| 2026-04-20 02:33 | -18.05600 | -53.58337 | 36856 ft | 465 kts | 328° |
| 2026-04-20 02:33 | -18.02680 | -53.59824 | 36195 ft | 464 kts | 328° |
| 2026-04-20 02:33 | -17.99781 | -53.61300 | 35595 ft | 461 kts | 328° |
| 2026-04-20 02:34 | -17.96902 | -53.62765 | 34901 ft | 458 kts | 328° |
| 2026-04-20 02:34 | -17.94061 | -53.64209 | 34376 ft | 455 kts | 328° |
| 2026-04-20 02:34 | -17.91163 | -53.65685 | 33769 ft | 461 kts | 329° |
| 2026-04-20 02:34 | -17.88248 | -53.67168 | 33169 ft | 464 kts | 329° |
| 2026-04-20 02:35 | -17.85302 | -53.68666 | 32551 ft | 463 kts | 329° |
| 2026-04-20 02:35 | -17.82389 | -53.70146 | 31929 ft | 460 kts | 329° |
| 2026-04-20 02:35 | -17.79477 | -53.71624 | 31300 ft | 458 kts | 329° |
| 2026-04-20 02:35 | -17.76631 | -53.73066 | 30721 ft | 454 kts | 329° |
| 2026-04-20 02:36 | -17.73800 | -53.74504 | 30089 ft | 450 kts | 329° |
| 2026-04-20 02:36 | -17.70961 | -53.75940 | 29497 ft | 445 kts | 329° |
| 2026-04-20 02:36 | -17.68182 | -53.77347 | 28902 ft | 441 kts | 329° |
| 2026-04-20 02:36 | -17.65436 | -53.78738 | 28333 ft | 437 kts | 329° |
| 2026-04-20 02:37 | -17.62731 | -53.80110 | 27742 ft | 433 kts | 329° |
| 2026-04-20 02:37 | -17.60013 | -53.81484 | 27166 ft | 428 kts | 329° |
| 2026-04-20 02:37 | -17.57324 | -53.82844 | 26600 ft | 424 kts | 329° |
| 2026-04-20 02:37 | -17.54695 | -53.84175 | 26040 ft | 421 kts | 329° |
| 2026-04-20 02:38 | -17.52060 | -53.85512 | 25474 ft | 417 kts | 330° |
| 2026-04-20 02:38 | -17.49450 | -53.86834 | 24938 ft | 414 kts | 330° |
| 2026-04-20 02:38 | -17.46892 | -53.88129 | 24395 ft | 411 kts | 330° |
| 2026-04-20 02:38 | -17.44320 | -53.89431 | 23845 ft | 409 kts | 331° |
| 2026-04-20 02:39 | -17.41762 | -53.90726 | 23308 ft | 406 kts | 331° |
| 2026-04-20 02:39 | -17.39206 | -53.92018 | 22762 ft | 404 kts | 332° |
| 2026-04-20 02:39 | -17.36740 | -53.93385 | 22043 ft | 402 kts | 323° |
| 2026-04-20 02:39 | -17.34757 | -53.95382 | 21573 ft | 389 kts | 309° |
| 2026-04-20 02:40 | -17.33044 | -53.97507 | 21039 ft | 387 kts | 308° |
| 2026-04-20 02:40 | -17.31300 | -53.99660 | 20537 ft | 387 kts | 309° |
| 2026-04-20 02:40 | -17.29555 | -54.01814 | 20025 ft | 386 kts | 309° |
| 2026-04-20 02:40 | -17.27833 | -54.03937 | 19508 ft | 384 kts | 309° |
| 2026-04-20 02:41 | -17.26106 | -54.06067 | 19013 ft | 382 kts | 309° |
| 2026-04-20 02:41 | -17.24408 | -54.08161 | 18491 ft | 381 kts | 309° |
| 2026-04-20 02:41 | -17.22692 | -54.10277 | 17990 ft | 378 kts | 309° |
| 2026-04-20 02:41 | -17.21001 | -54.12360 | 17527 ft | 374 kts | 310° |
| 2026-04-20 02:42 | -17.19315 | -54.14438 | 17064 ft | 375 kts | 310° |
| 2026-04-20 02:42 | -17.17633 | -54.16510 | 16550 ft | 372 kts | 310° |
| 2026-04-20 02:42 | -17.15969 | -54.18559 | 16059 ft | 369 kts | 310° |
| 2026-04-20 02:42 | -17.14314 | -54.20597 | 15582 ft | 366 kts | 310° |
| 2026-04-20 02:43 | -17.12670 | -54.22621 | 15079 ft | 364 kts | 310° |
| 2026-04-20 02:43 | -17.11043 | -54.24623 | 14596 ft | 362 kts | 310° |
| 2026-04-20 02:43 | -17.09405 | -54.26638 | 14126 ft | 358 kts | 310° |
| 2026-04-20 02:43 | -17.07794 | -54.28621 | 13647 ft | 355 kts | 310° |
| 2026-04-20 02:44 | -17.06213 | -54.30565 | 13170 ft | 353 kts | 310° |
| 2026-04-20 02:44 | -17.04623 | -54.32520 | 12706 ft | 350 kts | 310° |
| 2026-04-20 02:44 | -17.03045 | -54.34459 | 12241 ft | 345 kts | 310° |
| 2026-04-20 02:44 | -17.01498 | -54.36360 | 11788 ft | 339 kts | 310° |
| 2026-04-20 02:45 | -16.99994 | -54.38209 | 11336 ft | 334 kts | 310° |
| 2026-04-20 02:45 | -16.98499 | -54.40045 | 10892 ft | 325 kts | 310° |
| 2026-04-20 02:45 | -16.97067 | -54.41802 | 10486 ft | 316 kts | 310° |
| 2026-04-20 02:45 | -16.95658 | -54.43532 | 10077 ft | 308 kts | 310° |
| 2026-04-20 02:46 | -16.94297 | -54.45202 | 9695 ft | 300 kts | 310° |
| 2026-04-20 02:46 | -16.92953 | -54.46851 | 9273 ft | 294 kts | 310° |
| 2026-04-20 02:46 | -16.91642 | -54.48459 | 8902 ft | 286 kts | 310° |
| 2026-04-20 02:46 | -16.90374 | -54.50015 | 8523 ft | 279 kts | 310° |
| 2026-04-20 02:47 | -16.89134 | -54.51536 | 8172 ft | 271 kts | 311° |
| 2026-04-20 02:47 | -16.87906 | -54.53041 | 7832 ft | 267 kts | 311° |
| 2026-04-20 02:47 | -16.86725 | -54.54489 | 7467 ft | 267 kts | 311° |
| 2026-04-20 02:47 | -16.85532 | -54.55951 | 7113 ft | 266 kts | 311° |
| 2026-04-20 02:48 | -16.84328 | -54.57424 | 6763 ft | 264 kts | 311° |
| 2026-04-20 02:48 | -16.83143 | -54.58877 | 6389 ft | 262 kts | 311° |
| 2026-04-20 02:48 | -16.81977 | -54.60305 | 6054 ft | 255 kts | 311° |
| 2026-04-20 02:48 | -16.80837 | -54.61700 | 5735 ft | 249 kts | 311° |
| 2026-04-20 02:49 | -16.79779 | -54.63085 | 5444 ft | 241 kts | 302° |
| 2026-04-20 02:49 | -16.79126 | -54.64647 | 5112 ft | 230 kts | 290° |
| 2026-04-20 02:49 | -16.78578 | -54.66175 | 4811 ft | 220 kts | 291° |
| 2026-04-20 02:49 | -16.78046 | -54.67635 | 4542 ft | 210 kts | 291° |
| 2026-04-20 02:50 | -16.77530 | -54.69051 | 4225 ft | 205 kts | 291° |
| 2026-04-20 02:50 | -16.77037 | -54.70403 | 3980 ft | 194 kts | 291° |
| 2026-04-20 02:50 | -16.76526 | -54.71643 | 3788 ft | 178 kts | 303° |
| 2026-04-20 02:50 | -16.75635 | -54.72481 | 3545 ft | 168 kts | 337° |
| 2026-04-20 02:51 | -16.74520 | -54.72738 | 3513 ft | 166 kts | 0° |
| 2026-04-20 02:51 | -16.73369 | -54.72726 | 3522 ft | 165 kts | 4° |
| 2026-04-20 02:51 | -16.72224 | -54.72700 | 3540 ft | 165 kts | 3° |
| 2026-04-20 02:51 | -16.71066 | -54.72681 | 3529 ft | 166 kts | 2° |
| 2026-04-20 02:52 | -16.69912 | -54.72663 | 3514 ft | 166 kts | 2° |
| 2026-04-20 02:52 | -16.68736 | -54.72644 | 3246 ft | 164 kts | 2° |
| 2026-04-20 02:52 | -16.67674 | -54.72629 | 3121 ft | 147 kts | 2° |
| 2026-04-20 02:52 | -16.66627 | -54.72611 | 2906 ft | 151 kts | 3° |
| 2026-04-20 02:53 | -16.65582 | -54.72593 | 2700 ft | 146 kts | 2° |
| 2026-04-20 02:53 | -16.64590 | -54.72577 | 2521 ft | 143 kts | 2° |
| 2026-04-20 02:53 | -16.63580 | -54.72562 | 2312 ft | 142 kts | 2° |
| 2026-04-20 02:53 | -16.62594 | -54.72546 | 2138 ft | 141 kts | 1° |
| 2026-04-20 02:54 | -16.61605 | -54.72530 | 1917 ft | 141 kts | 1° |
| 2026-04-20 02:54 | -16.60632 | -54.72512 | 1718 ft | 140 kts | 2° |
| 2026-04-20 02:54 | -16.59651 | -54.72495 | 1523 ft | 139 kts | 0° |
| 2026-04-20 02:54 | -16.58737 | -54.72481 | 1461 ft | 114 kts | 1° |
| 2026-04-20 02:55 | -16.58193 | -54.72473 | 1461 ft | 44 kts | 359° |
| 2026-04-20 02:55 | -16.57952 | -54.72469 | 1461 ft | 29 kts | 1° |
| 2026-04-20 02:55 | -16.57845 | -54.72469 | 1461 ft | 8 kts | 355° |
| 2026-04-20 02:55 | -16.57787 | -54.72495 | 1461 ft | 7 kts | 17° |
| 2026-04-20 02:56 | -16.57804 | -54.72466 | 1461 ft | 9 kts | 181° |
| 2026-04-20 02:56 | -16.57888 | -54.72468 | 1461 ft | 14 kts | 181° |
| 2026-04-20 02:56 | -16.58004 | -54.72470 | 1462 ft | 18 kts | 181° |
| 2026-04-20 02:56 | -16.58149 | -54.72473 | 1462 ft | 22 kts | 181° |
| 2026-04-20 02:57 | -16.58308 | -54.72475 | 1462 ft | 22 kts | 180° |
| 2026-04-20 02:57 | -16.58470 | -54.72478 | 1462 ft | 25 kts | 181° |
| 2026-04-20 02:57 | -16.58652 | -54.72480 | 1462 ft | 26 kts | 181° |
| 2026-04-20 02:57 | -16.58798 | -54.72483 | 1462 ft | 12 kts | 181° |
| 2026-04-20 02:58 | -16.58859 | -54.72437 | 1462 ft | 14 kts | 91° |
| 2026-04-20 02:58 | -16.58860 | -54.72335 | 1462 ft | 6 kts | 84° |
| 2026-04-20 02:58 | -16.58828 | -54.72300 | 1462 ft | 5 kts | 22° |
| 2026-04-20 02:58 | -16.58822 | -54.72272 | 1462 ft | 5 kts | 95° |
| 2026-04-20 02:59 | -16.58830 | -54.72250 | 1462 ft | 0 kts | 180° |
| 2026-04-20 02:59 | -16.58839 | -54.72250 | 1462 ft | 0 kts | 180° |